Hogarty, Wisconsin
Current Conditions -  °F | °C
As of 12:35 AM on Tuesday 21 Oct 2014 (Local Time) from KAIG Reporting Station
Broken Clouds Broken Clouds  
Wind Chill: 33°   Ceiling: 1400
Heat Index: 37°   Visibility: 10mi
Dew Point: 36°   Wind: 6mph
Humidity: 94%   Direction: 360°N
Pressure: 30.07"   Gusts: NA
Location:  45.0192°N, 89.2792°W
Report Text: KAIG 210535Z AUTO 36005KT 10SM BKN014 BKN042 03/02 A3007 RMK AO2 T00300021
Loading
Personal Weather Stations






























Interactive Weather Map
Tropical Storm Tracking
New forecast layout! Learn more

10-Day Weather Forecast

Advertisements
Track Severe Weather on mobile